createdAt,value
2022-12-13T00:03:53.678Z,99.99
2022-12-13T00:08:53.584Z,99.99
2022-12-13T00:13:53.513Z,99.99
2022-12-13T00:18:53.475Z,99.99
2022-12-13T00:23:53.401Z,99.99
2022-12-13T00:28:53.349Z,99.99
2022-12-13T00:33:53.285Z,99.99
2022-12-13T00:38:53.239Z,99.99
2022-12-13T00:43:53.210Z,99.99
2022-12-13T00:48:53.134Z,99.99
2022-12-13T00:53:53.057Z,99.99
2022-12-13T00:58:52.996Z,99.99
2022-12-13T01:03:52.947Z,99.99
2022-12-13T01:08:52.888Z,99.99
2022-12-13T01:13:52.835Z,99.99
2022-12-13T01:18:52.788Z,99.99
2022-12-13T01:23:52.723Z,99.99
2022-12-13T01:28:52.665Z,99.99
2022-12-13T01:33:52.603Z,99.99
2022-12-13T01:38:52.551Z,99.99
2022-12-13T01:43:53.492Z,99.99
2022-12-13T01:48:52.432Z,99.99
2022-12-13T01:53:52.372Z,99.99
2022-12-13T01:58:52.320Z,99.99
2022-12-13T02:03:52.251Z,99.99
2022-12-13T02:08:52.192Z,99.99
2022-12-13T02:13:52.142Z,99.99
2022-12-13T02:18:52.083Z,99.99
2022-12-13T02:23:52.011Z,99.99
2022-12-13T02:28:51.957Z,99.99
2022-12-13T02:33:51.899Z,99.99
2022-12-13T02:38:51.837Z,99.99
2022-12-13T02:43:51.778Z,99.99
2022-12-13T02:48:52.717Z,99.99
2022-12-13T02:53:51.661Z,99.99
2022-12-13T02:58:51.605Z,99.99
2022-12-13T03:03:51.618Z,99.99
2022-12-13T03:08:51.484Z,99.99
2022-12-13T03:13:51.438Z,99.99
2022-12-13T03:18:51.366Z,99.99
2022-12-13T03:23:51.325Z,99.99
2022-12-13T03:28:51.255Z,99.99
2022-12-13T03:33:51.203Z,99.99
2022-12-13T03:38:51.133Z,99.99
2022-12-13T03:43:51.075Z,99.99
2022-12-13T03:48:51.016Z,99.52
2022-12-13T03:53:50.953Z,99.41
2022-12-13T03:58:50.891Z,99.63
2022-12-13T04:03:50.841Z,99.67
2022-12-13T04:08:50.980Z,99.99
2022-12-13T04:13:50.726Z,99.99
2022-12-13T04:18:50.660Z,99.99
2022-12-13T04:23:50.600Z,99.99
2022-12-13T04:28:54.540Z,99.99
2022-12-13T04:33:50.481Z,99.67
2022-12-13T04:38:50.428Z,99.56
2022-12-13T04:43:50.357Z,99.77
2022-12-13T04:48:50.308Z,99.99
2022-12-13T04:53:50.247Z,99.99
2022-12-13T04:58:50.188Z,99.99
2022-12-13T05:03:50.126Z,99.99
2022-12-13T05:08:50.092Z,99.99
2022-12-13T05:13:50.020Z,99.99
2022-12-13T05:18:49.965Z,99.99
2022-12-13T05:23:49.896Z,99.99
2022-12-13T05:28:49.852Z,99.71
2022-12-13T05:33:49.797Z,99.40
2022-12-13T05:38:49.731Z,99.07
2022-12-13T05:43:49.664Z,98.69
2022-12-13T05:48:49.611Z,98.69
2022-12-13T05:53:53.273Z,99.55
2022-12-13T05:58:49.496Z,99.44
2022-12-13T06:03:49.525Z,99.65
2022-12-13T06:08:49.417Z,99.44
2022-12-13T06:13:49.329Z,99.33
2022-12-13T06:18:50.730Z,99.33
2022-12-13T06:23:49.209Z,99.44
2022-12-13T06:28:49.156Z,99.87
2022-12-13T06:33:49.117Z,99.76
2022-12-13T06:38:49.042Z,99.99
2022-12-13T06:43:48.991Z,99.99
2022-12-13T06:48:48.928Z,99.44
2022-12-13T06:53:48.887Z,99.33
2022-12-13T06:58:48.820Z,99.76
2022-12-13T07:03:48.767Z,99.99
2022-12-13T07:08:48.706Z,99.98
2022-12-13T07:13:48.655Z,99.87
2022-12-13T07:18:48.595Z,99.29
2022-12-13T07:23:48.545Z,99.56
2022-12-13T07:28:54.661Z,99.99
2022-12-13T07:33:49.435Z,99.99
2022-12-13T07:38:48.364Z,99.99
2022-12-13T07:43:48.311Z,99.99
2022-12-13T07:48:49.244Z,99.99
2022-12-13T07:53:48.195Z,99.99
2022-12-13T07:58:48.132Z,99.99
2022-12-13T08:03:48.079Z,99.99
2022-12-13T08:08:48.028Z,99.99
2022-12-13T08:13:47.972Z,99.99
2022-12-13T08:18:47.903Z,99.99
2022-12-13T08:23:47.850Z,99.99
2022-12-13T08:28:47.779Z,99.99
2022-12-13T08:33:47.731Z,99.87
2022-12-13T08:38:47.658Z,99.99
2022-12-13T08:43:47.612Z,99.08
2022-12-13T08:48:47.586Z,98.50
2022-12-13T08:53:47.498Z,97.87
2022-12-13T08:58:47.426Z,97.30
2022-12-13T09:03:47.376Z,97.53
2022-12-13T09:08:51.684Z,96.43
2022-12-13T09:13:47.259Z,95.79
2022-12-13T09:18:47.188Z,95.69
2022-12-13T09:23:48.136Z,95.86
2022-12-13T09:28:47.069Z,95.07
2022-12-13T09:33:47.019Z,95.24
2022-12-13T09:38:46.957Z,95.20
2022-12-13T09:43:47.172Z,94.67
2022-12-13T09:48:48.567Z,94.21
2022-12-13T09:53:46.774Z,93.18
2022-12-13T09:58:46.706Z,93.45
2022-12-13T10:03:46.655Z,93.66
2022-12-13T10:08:46.590Z,93.41
2022-12-13T10:13:46.538Z,92.88
2022-12-13T10:18:46.465Z,91.97
2022-12-13T10:24:23.246Z,93.07
2022-12-13T10:28:47.360Z,92.96
2022-12-13T10:33:46.314Z,91.85
2022-12-13T10:38:46.230Z,92.38
2022-12-13T10:43:46.172Z,91.85
2022-12-13T10:48:46.120Z,91.68
2022-12-13T10:53:47.398Z,92.21
2022-12-13T10:58:45.986Z,91.61
2022-12-13T11:03:45.930Z,91.51
2022-12-13T11:08:45.864Z,91.41
2022-12-13T11:13:45.811Z,91.19
2022-12-13T11:18:45.740Z,91.61
2022-12-13T11:23:45.686Z,91.72
2022-12-13T11:28:45.620Z,92.35
2022-12-13T11:33:47.851Z,92.35
2022-12-13T11:38:45.506Z,92.41
2022-12-13T11:43:45.448Z,92.52
2022-12-13T11:48:45.379Z,92.21
2022-12-13T11:53:45.348Z,92.10
2022-12-13T11:59:02.417Z,91.68
2022-12-13T12:03:46.226Z,91.68
2022-12-13T12:08:45.519Z,91.36
2022-12-13T12:13:51.366Z,91.47
2022-12-13T12:18:46.016Z,91.32
2022-12-13T12:23:49.741Z,91.00
2022-12-13T12:28:45.897Z,90.86
2022-12-13T12:33:44.837Z,90.65
2022-12-13T12:38:44.775Z,90.44
2022-12-13T12:43:44.737Z,90.12
2022-12-13T12:49:02.334Z,90.01
2022-12-13T12:53:45.599Z,90.12
2022-12-13T12:58:44.533Z,89.81
2022-12-13T13:03:44.553Z,89.70
2022-12-13T13:08:44.423Z,89.95
2022-12-13T13:13:45.989Z,90.06
2022-12-13T13:18:44.297Z,90.33
2022-12-13T13:23:44.405Z,90.01
2022-12-13T13:28:44.175Z,90.23
2022-12-13T13:33:44.129Z,90.55
2022-12-13T13:38:44.051Z,90.44
2022-12-13T13:43:43.992Z,90.65
2022-12-13T13:48:43.931Z,90.65
2022-12-13T13:53:43.874Z,90.86
2022-12-13T13:58:43.820Z,90.97
2022-12-13T14:03:44.548Z,91.22
2022-12-13T14:08:43.690Z,91.64
2022-12-13T14:13:45.274Z,91.70
2022-12-13T14:18:43.568Z,91.96
2022-12-13T14:23:43.499Z,92.06
2022-12-13T14:28:43.450Z,92.06
2022-12-13T14:33:43.399Z,92.41
2022-12-13T14:38:43.328Z,92.84
2022-12-13T14:43:48.480Z,92.99
2022-12-13T14:48:44.207Z,93.41
2022-12-13T14:53:43.147Z,93.77
2022-12-13T14:58:43.088Z,93.98
2022-12-13T15:03:43.063Z,94.55
2022-12-13T15:08:42.967Z,94.76
2022-12-13T15:13:42.914Z,95.07
2022-12-13T15:18:42.846Z,95.12
2022-12-13T15:23:49.169Z,95.64
2022-12-13T15:28:43.727Z,95.96
2022-12-13T15:33:48.558Z,96.00
2022-12-13T15:38:43.612Z,96.11
2022-12-13T15:43:42.555Z,96.32
2022-12-13T15:48:48.559Z,96.32
2022-12-13T15:53:43.435Z,96.53
2022-12-13T15:58:42.395Z,96.53
2022-12-13T16:03:42.370Z,96.64
2022-12-13T16:08:42.255Z,96.64
2022-12-13T16:13:47.552Z,96.64
2022-12-13T16:18:43.132Z,96.68
2022-12-13T16:23:48.957Z,96.85
2022-12-13T16:28:43.014Z,96.75
2022-12-13T16:33:41.969Z,96.68
2022-12-13T16:38:41.910Z,96.68
2022-12-13T16:43:41.849Z,96.68
2022-12-13T16:48:41.782Z,96.83
2022-12-13T16:53:41.739Z,97.05
2022-12-13T16:58:47.703Z,97.47
2022-12-13T17:03:42.610Z,97.67
2022-12-13T17:08:41.552Z,97.89
2022-12-13T17:13:41.490Z,97.89
2022-12-13T17:18:41.438Z,97.78
2022-12-13T17:23:41.388Z,97.78
2022-12-13T17:28:41.317Z,97.89
2022-12-13T17:33:41.259Z,97.57
2022-12-13T17:38:41.197Z,97.36
2022-12-13T17:43:41.570Z,97.67
2022-12-13T17:48:41.689Z,97.78
2022-12-13T17:53:41.049Z,97.67
2022-12-13T17:58:40.965Z,97.99
2022-12-13T18:03:40.905Z,97.99
2022-12-13T18:08:40.844Z,97.99
2022-12-13T18:13:40.793Z,97.89
2022-12-13T18:18:40.733Z,97.89
2022-12-13T18:23:40.673Z,97.67
2022-12-13T18:28:40.614Z,97.89
2022-12-13T18:33:45.768Z,97.89
2022-12-13T18:38:41.486Z,97.89
2022-12-13T18:43:40.433Z,97.89
2022-12-13T18:48:40.373Z,97.99
2022-12-13T18:53:40.364Z,97.99
2022-12-13T18:58:40.263Z,98.10
2022-12-13T19:03:40.201Z,98.25
2022-12-13T19:08:40.139Z,98.25
2022-12-13T19:13:40.090Z,98.25
2022-12-13T19:18:40.020Z,98.14
2022-12-13T19:23:40.897Z,98.14
2022-12-13T19:28:39.899Z,98.19
2022-12-13T19:33:39.851Z,98.36
2022-12-13T19:38:39.791Z,98.50
2022-12-13T19:43:39.738Z,98.50
2022-12-13T19:48:39.669Z,98.50
2022-12-13T19:53:39.607Z,98.40
2022-12-13T19:58:39.549Z,98.50
2022-12-13T20:03:39.489Z,98.50
2022-12-13T20:08:39.429Z,98.61
2022-12-13T20:13:39.377Z,98.50
2022-12-13T20:18:39.317Z,98.61
2022-12-13T20:23:39.567Z,98.57
2022-12-13T20:28:39.195Z,98.46
2022-12-13T20:33:39.144Z,98.46
2022-12-13T20:38:39.075Z,98.46
2022-12-13T20:43:39.096Z,98.46
2022-12-13T20:48:38.964Z,98.36
2022-12-13T20:53:38.915Z,98.36
2022-12-13T20:58:40.332Z,98.46
2022-12-13T21:03:38.785Z,98.25
2022-12-13T21:08:38.727Z,98.14
2022-12-13T21:13:38.675Z,98.14
2022-12-13T21:18:38.604Z,98.30
2022-12-13T21:23:38.552Z,98.36
2022-12-13T21:28:38.490Z,98.36
2022-12-13T21:33:38.451Z,98.30
2022-12-13T21:38:38.371Z,98.40
2022-12-13T21:43:38.311Z,98.50
2022-12-13T21:48:38.262Z,98.50
2022-12-13T21:53:38.198Z,98.40
2022-12-13T21:58:38.129Z,98.30
2022-12-13T22:03:38.082Z,98.30
2022-12-13T22:08:38.020Z,98.19
2022-12-13T22:13:37.968Z,98.14
2022-12-13T22:18:37.900Z,98.08
2022-12-13T22:23:37.846Z,98.08
2022-12-13T22:28:37.781Z,97.83
2022-12-13T22:33:37.726Z,97.61
2022-12-13T22:38:37.661Z,97.66
2022-12-13T22:43:37.611Z,97.55
2022-12-13T22:48:37.545Z,97.51
2022-12-13T22:53:37.494Z,97.41
2022-12-13T22:58:37.425Z,97.41
2022-12-13T23:03:37.374Z,97.45
2022-12-13T23:08:43.183Z,97.41
2022-12-13T23:13:38.264Z,97.41
2022-12-13T23:18:37.194Z,97.41
2022-12-13T23:23:37.141Z,97.41
2022-12-13T23:28:37.091Z,97.41
2022-12-13T23:33:37.024Z,97.41
2022-12-13T23:38:36.962Z,97.51
2022-12-13T23:43:36.903Z,97.57
2022-12-13T23:48:36.833Z,97.61
2022-12-13T23:53:36.783Z,97.72
2022-12-13T23:58:36.721Z,97.78
